createdAt,value
2018-09-01T00:00:15.487Z,1014.5
2018-09-01T00:01:22.526Z,1014.5
2018-09-01T00:02:28.134Z,1014.5
2018-09-01T00:03:33.551Z,1014.5
2018-09-01T00:04:39.494Z,1014.5
2018-09-01T00:05:45.103Z,1014.5
2018-09-01T00:06:51.424Z,1014.5
2018-09-01T00:07:57.507Z,1014.5
2018-09-01T00:09:02.822Z,1014.5
2018-09-01T00:10:07.020Z,1014.5
2018-09-01T00:11:11.090Z,1014.5
2018-09-01T00:12:16.372Z,1014.5
2018-09-01T00:13:20.719Z,1014.5
2018-09-01T00:14:26.179Z,1014.5
2018-09-01T00:15:31.345Z,1014.5
2018-09-01T00:16:36.651Z,1014.5
2018-09-01T00:17:41.772Z,1014.6
2018-09-01T00:18:47.414Z,1014.6
2018-09-01T00:19:50.388Z,1014.6
2018-09-01T00:20:56.731Z,1014.6
2018-09-01T00:22:01.696Z,1014.6
2018-09-01T00:23:05.518Z,1014.6
2018-09-01T00:24:11.359Z,1014.6
2018-09-01T00:25:18.421Z,1014.6
2018-09-01T00:26:24.203Z,1014.6
2018-09-01T00:27:29.653Z,1014.6
2018-09-01T00:28:32.984Z,1014.6
2018-09-01T00:29:38.007Z,1014.6
2018-09-01T00:30:44.450Z,1014.6
2018-09-01T00:31:52.157Z,1014.6
2018-09-01T00:32:58.282Z,1014.6
2018-09-01T00:34:03.119Z,1014.6
2018-09-01T00:35:07.996Z,1014.6
2018-09-01T00:36:14.069Z,1014.6
2018-09-01T00:37:18.339Z,1014.6
2018-09-01T00:38:24.109Z,1014.6
2018-09-01T00:39:28.269Z,1014.6
2018-09-01T00:40:32.952Z,1014.6
2018-09-01T00:41:38.150Z,1014.6
2018-09-01T00:42:44.044Z,1014.6
2018-09-01T00:43:48.655Z,1014.7
2018-09-01T00:44:54.302Z,1014.6
2018-09-01T00:45:58.564Z,1014.6
2018-09-01T00:47:03.610Z,1014.6
2018-09-01T00:48:07.188Z,1014.7
2018-09-01T00:49:11.276Z,1014.7
2018-09-01T00:50:15.813Z,1014.6
2018-09-01T00:51:21.376Z,1014.6
2018-09-01T00:52:24.770Z,1014.6
2018-09-01T00:53:30.638Z,1014.6
2018-09-01T00:54:35.202Z,1014.7
2018-09-01T00:55:38.428Z,1014.7
2018-09-01T00:56:43.209Z,1014.7
2018-09-01T00:57:49.331Z,1014.7
2018-09-01T00:58:54.925Z,1014.7
2018-09-01T01:00:00.741Z,1014.7
2018-09-01T01:01:05.696Z,1014.7
2018-09-01T01:02:09.454Z,1014.7
2018-09-01T01:03:15.260Z,1014.6
2018-09-01T01:04:19.071Z,1014.6
2018-09-01T01:05:23.510Z,1014.7
2018-09-01T01:06:26.734Z,1014.6
2018-09-01T01:07:32.923Z,1014.6
2018-09-01T01:08:38.549Z,1014.6
2018-09-01T01:09:43.680Z,1014.6
2018-09-01T01:10:48.238Z,1014.6
2018-09-01T01:11:53.384Z,1014.6
2018-09-01T01:12:58.232Z,1014.6
2018-09-01T01:14:02.775Z,1014.6
2018-09-01T01:15:09.449Z,1014.6
2018-09-01T01:16:14.488Z,1014.6
2018-09-01T01:17:19.608Z,1014.6
2018-09-01T01:18:25.783Z,1014.6
2018-09-01T01:19:31.375Z,1014.6
2018-09-01T01:20:36.869Z,1014.6
2018-09-01T01:21:42.430Z,1014.6
2018-09-01T01:22:47.955Z,1014.6
2018-09-01T01:23:53.536Z,1014.6
2018-09-01T01:24:58.982Z,1014.7
2018-09-01T01:26:05.023Z,1014.7
2018-09-01T01:27:09.989Z,1014.7
2018-09-01T01:28:14.941Z,1014.7
2018-09-01T01:29:18.661Z,1014.7
2018-09-01T01:30:24.325Z,1014.7
2018-09-01T01:31:27.953Z,1014.7
2018-09-01T01:32:33.070Z,1014.7
2018-09-01T01:33:37.268Z,1014.7
2018-09-01T01:34:43.669Z,1014.7
2018-09-01T01:35:50.793Z,1014.8
2018-09-01T01:36:54.950Z,1014.7
2018-09-01T01:38:01.203Z,1014.7
2018-09-01T01:39:08.305Z,1014.8
2018-09-01T01:40:15.685Z,1014.8
2018-09-01T01:41:21.059Z,1014.8
2018-09-01T01:42:26.897Z,1014.7
2018-09-01T01:43:33.223Z,1014.7
2018-09-01T01:44:36.767Z,1014.8
2018-09-01T01:45:41.106Z,1014.8
2018-09-01T01:46:46.331Z,1014.8
2018-09-01T01:47:51.685Z,1014.8
2018-09-01T01:48:58.335Z,1014.8
2018-09-01T01:50:04.690Z,1014.8
2018-09-01T01:51:10.890Z,1014.7
2018-09-01T01:52:16.151Z,1014.7
2018-09-01T01:53:23.230Z,1014.8
2018-09-01T01:54:29.940Z,1014.8
2018-09-01T01:55:36.446Z,1014.9
2018-09-01T01:56:41.434Z,1014.9
2018-09-01T01:57:47.596Z,1014.8
2018-09-01T01:58:53.018Z,1014.8
2018-09-01T02:00:00.088Z,1014.9
2018-09-01T02:01:05.301Z,1014.9
2018-09-01T02:02:10.764Z,1014.9
2018-09-01T02:03:17.434Z,1014.8
2018-09-01T02:04:23.279Z,1014.9
2018-09-01T02:05:27.958Z,1014.9
2018-09-01T02:06:32.594Z,1014.9
2018-09-01T02:07:38.086Z,1014.9
2018-09-01T02:08:44.374Z,1014.9
2018-09-01T02:09:49.411Z,1014.9
2018-09-01T02:10:54.301Z,1014.8
2018-09-01T02:11:59.843Z,1014.9
2018-09-01T02:13:04.784Z,1014.8
2018-09-01T02:14:10.261Z,1014.9
2018-09-01T02:15:16.285Z,1014.9
2018-09-01T02:16:22.040Z,1014.9
2018-09-01T02:17:27.609Z,1014.9
2018-09-01T02:18:32.973Z,1014.9
2018-09-01T02:19:39.277Z,1014.9
2018-09-01T02:20:43.656Z,1015
2018-09-01T02:21:48.684Z,1015
2018-09-01T02:22:54.444Z,1015
2018-09-01T02:23:59.268Z,1014.9
2018-09-01T02:25:06.074Z,1015
2018-09-01T02:26:11.144Z,1015
2018-09-01T02:27:15.778Z,1015
2018-09-01T02:28:22.163Z,1015
2018-09-01T02:29:29.005Z,1014.9
2018-09-01T02:30:35.803Z,1015
2018-09-01T02:31:42.081Z,1015
2018-09-01T02:32:47.845Z,1015
2018-09-01T02:33:53.219Z,1015
2018-09-01T02:34:59.360Z,1015
2018-09-01T02:36:03.758Z,1015
2018-09-01T02:37:09.305Z,1015
2018-09-01T02:38:14.072Z,1015
2018-09-01T02:39:20.567Z,1015
2018-09-01T02:40:26.221Z,1015
2018-09-01T02:41:31.925Z,1015
2018-09-01T02:42:35.148Z,1015
2018-09-01T02:43:42.643Z,1014.9
2018-09-01T02:44:46.829Z,1015
2018-09-01T02:45:51.114Z,1015
2018-09-01T02:46:58.067Z,1015
2018-09-01T02:48:04.171Z,1015
2018-09-01T02:49:11.656Z,1015
2018-09-01T02:50:18.758Z,1015
2018-09-01T02:51:24.061Z,1015
2018-09-01T02:52:29.384Z,1015
2018-09-01T02:53:35.042Z,1015
2018-09-01T02:54:40.599Z,1015
2018-09-01T02:55:46.195Z,1015
2018-09-01T02:56:52.822Z,1015
2018-09-01T02:57:57.739Z,1015
2018-09-01T02:59:04.584Z,1015.1
2018-09-01T03:00:09.320Z,1015.1
2018-09-01T03:01:14.160Z,1015.1
2018-09-01T03:02:20.200Z,1015.2
2018-09-01T03:03:26.462Z,1015.2
2018-09-01T03:04:31.134Z,1015.2
2018-09-01T03:05:36.557Z,1015.2
2018-09-01T03:06:41.799Z,1015.2
2018-09-01T03:07:48.046Z,1015.3
2018-09-01T03:08:53.127Z,1015.2
2018-09-01T03:09:59.731Z,1015.3
2018-09-01T03:11:04.920Z,1015.3
2018-09-01T03:12:09.859Z,1015.3
2018-09-01T03:13:15.822Z,1015.3
2018-09-01T03:14:21.679Z,1015.3
2018-09-01T03:15:28.848Z,1015.3
2018-09-01T03:16:34.201Z,1015.3
2018-09-01T03:17:41.277Z,1015.3
2018-09-01T03:18:45.989Z,1015.3
2018-09-01T03:19:51.812Z,1015.3
2018-09-01T03:20:57.157Z,1015.3
2018-09-01T03:22:04.188Z,1015.3
2018-09-01T03:23:11.220Z,1015.3
2018-09-01T03:24:17.938Z,1015.3
2018-09-01T03:25:24.643Z,1015.3
2018-09-01T03:26:31.377Z,1015.3
2018-09-01T03:27:38.103Z,1015.3
2018-09-01T03:28:45.198Z,1015.3
2018-09-01T03:29:52.634Z,1015.3
2018-09-01T03:30:59.117Z,1015.3
2018-09-01T03:32:04.402Z,1015.3
2018-09-01T03:33:11.541Z,1015.3
2018-09-01T03:34:17.016Z,1015.3
2018-09-01T03:35:24.152Z,1015.3
2018-09-01T03:36:28.672Z,1015.3
2018-09-01T03:37:33.663Z,1015.3
2018-09-01T03:38:40.696Z,1015.3
2018-09-01T03:39:46.959Z,1015.3
2018-09-01T03:40:53.579Z,1015.3
2018-09-01T03:42:01.335Z,1015.3
2018-09-01T03:43:07.480Z,1015.2
2018-09-01T03:44:14.847Z,1015.2
2018-09-01T03:45:21.272Z,1015.2
2018-09-01T03:46:28.499Z,1015.2
2018-09-01T03:47:34.561Z,1015.2
2018-09-01T03:48:40.609Z,1015.2
2018-09-01T03:49:46.583Z,1015.2
2018-09-01T03:50:52.793Z,1015.2
2018-09-01T03:51:58.565Z,1015.1
2018-09-01T03:53:05.332Z,1015.2
2018-09-01T03:54:11.507Z,1015.2
2018-09-01T03:55:17.455Z,1015.2
2018-09-01T03:56:22.854Z,1015.2
2018-09-01T03:57:29.730Z,1015.2
2018-09-01T03:58:34.828Z,1015.2
2018-09-01T03:59:41.664Z,1015.2
2018-09-01T04:00:47.770Z,1015.2
2018-09-01T04:01:52.542Z,1015.2
2018-09-01T04:02:57.986Z,1015.2
2018-09-01T04:04:03.661Z,1015.2
2018-09-01T04:05:09.377Z,1015.3
2018-09-01T04:06:15.648Z,1015.2
2018-09-01T04:07:20.181Z,1015.3
2018-09-01T04:08:26.105Z,1015.3
2018-09-01T04:09:32.894Z,1015.3
2018-09-01T04:10:38.221Z,1015.3
2018-09-01T04:11:44.765Z,1015.3
2018-09-01T04:12:49.913Z,1015.3
2018-09-01T04:13:55.337Z,1015.3
2018-09-01T04:15:01.173Z,1015.3
2018-09-01T04:16:06.718Z,1015.3
2018-09-01T04:17:13.299Z,1015.3
2018-09-01T04:18:19.320Z,1015.3
2018-09-01T04:19:25.718Z,1015.3
2018-09-01T04:20:32.320Z,1015.3
2018-09-01T04:21:38.570Z,1015.3
2018-09-01T04:22:44.955Z,1015.3
2018-09-01T04:23:51.499Z,1015.3
2018-09-01T04:24:59.194Z,1015.3
2018-09-01T04:26:05.416Z,1015.3
2018-09-01T04:27:12.385Z,1015.4
2018-09-01T04:28:19.527Z,1015.4
2018-09-01T04:29:26.190Z,1015.4
2018-09-01T04:30:32.167Z,1015.5
2018-09-01T04:31:37.740Z,1015.4
2018-09-01T04:32:43.712Z,1015.4
2018-09-01T04:33:50.454Z,1015.4
2018-09-01T04:34:55.451Z,1015.4
2018-09-01T04:36:01.834Z,1015.4
2018-09-01T04:37:07.444Z,1015.4
2018-09-01T04:38:11.290Z,1015.4
2018-09-01T04:39:17.190Z,1015.5
2018-09-01T04:40:23.690Z,1015.5
2018-09-01T04:41:29.747Z,1015.5
2018-09-01T04:42:36.538Z,1015.4
2018-09-01T04:43:43.936Z,1015.5
2018-09-01T04:44:50.800Z,1015.5
2018-09-01T04:45:56.540Z,1015.5
2018-09-01T04:47:03.658Z,1015.5
2018-09-01T04:48:10.431Z,1015.5
2018-09-01T04:49:15.645Z,1015.5
2018-09-01T04:50:21.996Z,1015.5
2018-09-01T04:51:27.479Z,1015.5
2018-09-01T04:52:32.174Z,1015.6
2018-09-01T04:53:39.071Z,1015.6
2018-09-01T04:54:43.934Z,1015.5
2018-09-01T04:55:49.253Z,1015.6
2018-09-01T04:56:55.578Z,1015.6
2018-09-01T04:58:02.530Z,1015.6
2018-09-01T04:59:08.899Z,1015.6
2018-09-01T05:00:15.528Z,1015.6
2018-09-01T05:01:21.849Z,1015.6
2018-09-01T05:02:29.637Z,1015.6
2018-09-01T05:03:34.278Z,1015.7
2018-09-01T05:04:40.144Z,1015.7
2018-09-01T05:05:46.266Z,1015.7
2018-09-01T05:06:53.803Z,1015.7
2018-09-01T05:07:58.073Z,1015.7
2018-09-01T05:09:03.091Z,1015.7
2018-09-01T05:10:08.458Z,1015.7
2018-09-01T05:11:14.661Z,1015.7
2018-09-01T05:12:20.933Z,1015.7
2018-09-01T05:13:25.955Z,1015.7
2018-09-01T05:14:32.563Z,1015.7
2018-09-01T05:15:38.312Z,1015.7
2018-09-01T05:16:44.862Z,1015.7
2018-09-01T05:17:49.762Z,1015.7
2018-09-01T05:18:56.547Z,1015.7
2018-09-01T05:20:01.664Z,1015.8
2018-09-01T05:21:08.555Z,1015.8
2018-09-01T05:22:15.332Z,1015.7
2018-09-01T05:23:21.807Z,1015.8
2018-09-01T05:24:26.744Z,1015.8
2018-09-01T05:25:32.811Z,1015.8
2018-09-01T05:26:37.820Z,1015.8
2018-09-01T05:27:43.512Z,1015.8
2018-09-01T05:28:48.801Z,1015.9
2018-09-01T05:29:55.299Z,1015.8
2018-09-01T05:31:02.892Z,1015.9
2018-09-01T05:32:08.172Z,1015.8
2018-09-01T05:33:15.136Z,1015.9
2018-09-01T05:34:20.902Z,1015.9
2018-09-01T05:35:27.052Z,1015.9
2018-09-01T05:36:32.809Z,1015.9
2018-09-01T05:37:40.133Z,1015.8
2018-09-01T05:38:46.455Z,1015.9
2018-09-01T05:39:52.170Z,1015.8
2018-09-01T05:40:58.621Z,1015.9
2018-09-01T05:42:06.520Z,1015.9
2018-09-01T05:43:10.674Z,1015.9
2018-09-01T05:44:17.817Z,1016
2018-09-01T05:45:24.697Z,1015.9
2018-09-01T05:46:30.516Z,1016
2018-09-01T05:47:35.022Z,1016
2018-09-01T05:48:41.217Z,1016
2018-09-01T05:49:47.147Z,1016
2018-09-01T05:50:53.850Z,1016
2018-09-01T05:52:01.123Z,1016
2018-09-01T05:53:07.739Z,1016
2018-09-01T05:54:15.269Z,1016
2018-09-01T05:55:21.078Z,1016
2018-09-01T05:56:27.160Z,1016
2018-09-01T05:57:34.590Z,1016
2018-09-01T05:58:41.784Z,1016
2018-09-01T05:59:49.537Z,1016
2018-09-01T06:00:56.098Z,1016
2018-09-01T06:02:01.945Z,1016.1
2018-09-01T06:03:08.889Z,1016.1
2018-09-01T06:04:14.972Z,1016.1
2018-09-01T06:05:20.365Z,1016.2
2018-09-01T06:06:26.005Z,1016.2
2018-09-01T06:07:32.125Z,1016.2
2018-09-01T06:08:40.055Z,1016.2
2018-09-01T06:11:20.672Z,1016.2
2018-09-01T06:12:26.041Z,1016.3
2018-09-01T06:13:32.525Z,1016.3
2018-09-01T06:14:39.169Z,1016.3
2018-09-01T06:15:45.075Z,1016.3
2018-09-01T06:16:52.733Z,1016.3
2018-09-01T06:17:59.832Z,1016.3
2018-09-01T06:19:06.591Z,1016.3
2018-09-01T06:20:12.778Z,1016.3
2018-09-01T06:21:18.043Z,1016.4
2018-09-01T06:22:23.427Z,1016.4
2018-09-01T06:23:29.605Z,1016.4
2018-09-01T06:24:34.589Z,1016.4
2018-09-01T06:25:40.145Z,1016.4
2018-09-01T06:26:46.488Z,1016.5
2018-09-01T06:27:52.354Z,1016.5
2018-09-01T06:28:57.762Z,1016.5
2018-09-01T06:30:03.941Z,1016.6
2018-09-01T06:31:10.204Z,1016.6
2018-09-01T06:32:17.686Z,1016.6
2018-09-01T06:33:25.046Z,1016.6
2018-09-01T06:34:30.880Z,1016.6
2018-09-01T06:35:37.066Z,1016.6
2018-09-01T06:36:40.829Z,1016.6
2018-09-01T06:37:46.701Z,1016.6
2018-09-01T06:38:52.000Z,1016.6
2018-09-01T06:39:58.666Z,1016.6
2018-09-01T06:41:06.929Z,1016.6
2018-09-01T06:42:13.394Z,1016.6
2018-09-01T06:43:19.788Z,1016.6
2018-09-01T06:44:27.087Z,1016.6
2018-09-01T06:45:33.556Z,1016.6
2018-09-01T06:46:39.201Z,1016.6
2018-09-01T06:47:42.265Z,1016.6
2018-09-01T06:48:46.687Z,1016.6
2018-09-01T06:49:53.386Z,1016.6
2018-09-01T06:50:59.778Z,1016.7
2018-09-01T06:52:05.735Z,1016.7
2018-09-01T06:53:14.739Z,1016.7
2018-09-01T06:54:20.860Z,1016.7
2018-09-01T06:55:27.718Z,1016.8
2018-09-01T06:56:33.927Z,1016.8
2018-09-01T06:57:39.428Z,1016.8
2018-09-01T06:58:46.649Z,1016.8
2018-09-01T06:59:52.258Z,1016.8
2018-09-01T07:00:57.381Z,1016.9
2018-09-01T07:02:02.666Z,1016.9
2018-09-01T07:03:10.071Z,1016.8
2018-09-01T07:04:15.075Z,1016.8
2018-09-01T07:05:20.921Z,1016.8
2018-09-01T07:06:26.543Z,1016.9
2018-09-01T07:07:31.819Z,1016.9
2018-09-01T07:08:38.998Z,1016.9
2018-09-01T07:09:45.933Z,1016.9
2018-09-01T07:10:51.411Z,1016.9
2018-09-01T07:12:00.566Z,1016.9
2018-09-01T07:13:06.193Z,1016.9
2018-09-01T07:14:12.328Z,1016.9
2018-09-01T07:15:18.091Z,1017
2018-09-01T07:16:23.498Z,1017
2018-09-01T07:17:27.372Z,1016.9
2018-09-01T07:18:30.743Z,1017
2018-09-01T07:19:36.670Z,1017
2018-09-01T07:20:42.811Z,1017
2018-09-01T07:21:48.268Z,1017
2018-09-01T07:22:54.908Z,1017
2018-09-01T07:24:00.603Z,1017
2018-09-01T07:25:07.156Z,1017
2018-09-01T07:26:13.362Z,1017
2018-09-01T07:27:19.643Z,1017.1
2018-09-01T07:28:26.091Z,1017.1
2018-09-01T07:29:31.831Z,1017.1
2018-09-01T07:30:37.482Z,1017.1
2018-09-01T07:31:43.651Z,1017.1
2018-09-01T07:32:50.238Z,1017.2
2018-09-01T07:33:57.274Z,1017.2
2018-09-01T07:35:02.801Z,1017.1
2018-09-01T07:36:08.120Z,1017.1
2018-09-01T07:37:11.099Z,1017.2
2018-09-01T07:38:16.852Z,1017.2
2018-09-01T07:39:22.891Z,1017.2
2018-09-01T07:40:28.814Z,1017.2
2018-09-01T07:41:33.738Z,1017.2
2018-09-01T07:42:37.965Z,1017.2
2018-09-01T07:43:43.602Z,1017.2
2018-09-01T07:44:49.669Z,1017.2
2018-09-01T07:45:56.283Z,1017.3
2018-09-01T07:47:00.088Z,1017.3
2018-09-01T07:48:06.085Z,1017.3
2018-09-01T07:49:13.081Z,1017.3
2018-09-01T07:50:18.717Z,1017.3
2018-09-01T07:51:25.254Z,1017.3
2018-09-01T07:52:31.396Z,1017.4
2018-09-01T07:53:36.636Z,1017.3
2018-09-01T07:54:41.091Z,1017.3
2018-09-01T07:55:45.573Z,1017.4
2018-09-01T07:56:50.500Z,1017.4
2018-09-01T07:57:54.863Z,1017.4
2018-09-01T07:58:58.879Z,1017.4
2018-09-01T08:00:03.211Z,1017.4
2018-09-01T08:01:07.694Z,1017.4
2018-09-01T08:02:12.147Z,1017.4
2018-09-01T08:03:15.764Z,1017.5
2018-09-01T08:04:18.202Z,1017.5
2018-09-01T08:05:20.316Z,1017.5
2018-09-01T08:06:22.409Z,1017.5
2018-09-01T08:07:24.584Z,1017.5
2018-09-01T08:08:26.632Z,1017.5
2018-09-01T08:09:28.728Z,1017.6
2018-09-01T08:10:30.851Z,1017.6
2018-09-01T08:11:32.958Z,1017.6
2018-09-01T08:12:35.083Z,1017.6
2018-09-01T08:13:37.235Z,1017.6
2018-09-01T08:14:39.481Z,1017.6
2018-09-01T08:15:41.456Z,1017.6
2018-09-01T08:16:43.857Z,1017.7
2018-09-01T08:17:45.984Z,1017.7
2018-09-01T08:18:48.105Z,1017.7
2018-09-01T08:19:50.233Z,1017.7
2018-09-01T08:20:52.350Z,1017.7
2018-09-01T08:21:54.545Z,1017.8
2018-09-01T08:22:56.656Z,1017.8
2018-09-01T08:23:59.186Z,1017.8
2018-09-01T08:25:01.752Z,1017.8
2018-09-01T08:26:03.919Z,1017.9
2018-09-01T08:27:05.970Z,1017.8
2018-09-01T08:28:08.072Z,1017.8
2018-09-01T08:29:10.180Z,1017.9
2018-09-01T08:30:12.304Z,1017.8
2018-09-01T08:31:15.086Z,1017.9
2018-09-01T08:32:17.181Z,1017.9
2018-09-01T08:33:19.299Z,1017.8
2018-09-01T08:34:21.422Z,1017.8
2018-09-01T08:35:23.522Z,1017.8
2018-09-01T08:36:25.622Z,1017.8
2018-09-01T08:37:27.724Z,1017.8
2018-09-01T08:38:29.838Z,1017.9
2018-09-01T08:39:31.928Z,1017.9
2018-09-01T08:40:34.038Z,1017.9
2018-09-01T08:41:36.200Z,1017.9
2018-09-01T08:42:38.296Z,1017.9
2018-09-01T08:43:40.417Z,1017.9
2018-09-01T08:44:42.518Z,1017.9
2018-09-01T08:45:44.626Z,1017.9
2018-09-01T08:46:46.723Z,1017.9
2018-09-01T08:47:48.842Z,1017.9
2018-09-01T08:48:50.948Z,1017.9
2018-09-01T08:49:53.059Z,1018
2018-09-01T08:50:55.758Z,1017.9
2018-09-01T08:51:58.242Z,1017.8
2018-09-01T08:53:00.363Z,1017.9
2018-09-01T08:54:02.476Z,1017.8
2018-09-01T08:55:04.595Z,1017.9
2018-09-01T08:56:06.691Z,1017.9
2018-09-01T08:57:08.811Z,1017.9
2018-09-01T08:58:11.308Z,1017.9
2018-09-01T08:59:13.414Z,1017.9
2018-09-01T09:00:15.545Z,1017.9
2018-09-01T09:01:18.723Z,1017.9
2018-09-01T09:02:20.835Z,1017.9
2018-09-01T09:03:22.959Z,1017.9
2018-09-01T09:04:25.074Z,1017.9
2018-09-01T09:05:27.224Z,1017.9
2018-09-01T09:06:29.301Z,1017.9
2018-09-01T09:07:31.404Z,1017.9
2018-09-01T09:08:33.519Z,1017.9
2018-09-01T09:09:36.036Z,1018
2018-09-01T09:10:38.452Z,1017.9
2018-09-01T09:11:40.651Z,1017.9
2018-09-01T09:12:43.234Z,1018
2018-09-01T09:13:45.346Z,1018
2018-09-01T09:14:47.457Z,1018
2018-09-01T09:15:49.584Z,1018
2018-09-01T09:16:51.683Z,1018
2018-09-01T09:17:54.112Z,1018
2018-09-01T09:18:56.224Z,1018
2018-09-01T09:19:58.357Z,1018
2018-09-01T09:21:00.460Z,1018
2018-09-01T09:22:02.584Z,1018
2018-09-01T09:23:04.703Z,1018
2018-09-01T09:24:06.808Z,1018
2018-09-01T09:25:08.943Z,1018
2018-09-01T09:26:11.043Z,1018
2018-09-01T09:27:13.452Z,1018
2018-09-01T09:28:15.872Z,1018
2018-09-01T09:29:17.997Z,1018
2018-09-01T09:30:20.108Z,1018
2018-09-01T09:31:22.246Z,1018.1
2018-09-01T09:32:24.656Z,1018.1
2018-09-01T09:33:26.759Z,1018.1
2018-09-01T09:34:28.914Z,1018.1
2018-09-01T09:35:31.007Z,1018.1
2018-09-01T09:36:33.111Z,1018.1
2018-09-01T09:37:35.230Z,1018.1
2018-09-01T09:38:37.362Z,1018.1
2018-09-01T09:39:39.481Z,1018.1
2018-09-01T09:40:41.639Z,1018.1
2018-09-01T09:41:44.247Z,1018
2018-09-01T09:42:46.355Z,1018.1
2018-09-01T09:43:48.504Z,1018.1
2018-09-01T09:44:51.021Z,1018.1
2018-09-01T09:45:53.142Z,1018.1
2018-09-01T09:46:55.277Z,1018.1
2018-09-01T09:47:57.399Z,1018.1
2018-09-01T09:48:59.523Z,1018.1
2018-09-01T09:50:01.947Z,1018.1
2018-09-01T09:51:04.172Z,1018.1
2018-09-01T09:52:06.681Z,1018.1
2018-09-01T09:53:08.934Z,1018.1
2018-09-01T09:54:11.360Z,1018.1
2018-09-01T09:55:13.487Z,1018.2
2018-09-01T09:56:15.894Z,1018.1
2018-09-01T09:57:18.002Z,1018.2
2018-09-01T09:58:20.287Z,1018.1
2018-09-01T09:59:22.715Z,1018.2
2018-09-01T10:00:24.837Z,1018.2
2018-09-01T10:01:26.958Z,1018.2
2018-09-01T10:02:29.181Z,1018.2
2018-09-01T10:03:31.607Z,1018.2
2018-09-01T10:04:33.730Z,1018.2
2018-09-01T10:05:36.353Z,1018.2
2018-09-01T10:06:38.410Z,1018.1
2018-09-01T10:07:40.547Z,1018.1
2018-09-01T10:08:43.263Z,1018.2
2018-09-01T10:09:45.675Z,1018.2
2018-09-01T10:10:48.197Z,1018.2
2018-09-01T10:11:50.439Z,1018.2
2018-09-01T10:12:53.791Z,1018.2
2018-09-01T10:13:56.008Z,1018.1
2018-09-01T10:14:58.416Z,1018.2
2018-09-01T10:16:00.638Z,1018.2
2018-09-01T10:17:03.824Z,1018.2
2018-09-01T10:18:05.971Z,1018.2
2018-09-01T10:19:08.079Z,1018.2
2018-09-01T10:20:10.287Z,1018.2
2018-09-01T10:21:12.860Z,1018.2
2018-09-01T10:22:14.970Z,1018.2
2018-09-01T10:23:17.107Z,1018.2
2018-09-01T10:24:19.211Z,1018.2
2018-09-01T10:25:21.575Z,1018.2
2018-09-01T10:26:23.646Z,1018.2
2018-09-01T10:27:25.706Z,1018.2
2018-09-01T10:28:27.772Z,1018.2
2018-09-01T10:29:30.803Z,1018.2
2018-09-01T10:30:32.870Z,1018.2
2018-09-01T10:31:35.209Z,1018.2
2018-09-01T10:32:37.277Z,1018.2
2018-09-01T10:33:39.511Z,1018.2
2018-09-01T10:34:41.961Z,1018.2
2018-09-01T10:35:44.018Z,1018.3
2018-09-01T10:36:46.184Z,1018.2
2018-09-01T10:37:48.552Z,1018.2
2018-09-01T10:38:50.881Z,1018.2
2018-09-01T10:39:52.947Z,1018.2
2018-09-01T10:40:54.984Z,1018.2
2018-09-01T10:41:57.034Z,1018.1
2018-09-01T10:42:59.094Z,1018.2
2018-09-01T10:44:01.149Z,1018.2
2018-09-01T10:45:03.202Z,1018.2
2018-09-01T10:46:05.259Z,1018.1
2018-09-01T10:47:07.306Z,1018.1
2018-09-01T10:48:09.360Z,1018.1
2018-09-01T10:49:11.423Z,1018.1
2018-09-01T10:50:13.781Z,1018.1
2018-09-01T10:51:15.832Z,1018
2018-09-01T10:52:17.889Z,1018.1
2018-09-01T10:53:19.942Z,1018.1
2018-09-01T10:54:21.988Z,1018.2
2018-09-01T10:55:24.050Z,1018.1
2018-09-01T10:56:26.101Z,1018.1
2018-09-01T10:57:28.159Z,1018
2018-09-01T10:58:30.244Z,1018.1
2018-09-01T10:59:32.383Z,1018.1
2018-09-01T11:00:34.355Z,1018.1
2018-09-01T11:01:36.699Z,1018
2018-09-01T11:02:39.137Z,1018.1
2018-09-01T11:03:41.186Z,1018
2018-09-01T11:04:43.243Z,1018
2018-09-01T11:05:45.817Z,1018
2018-09-01T11:06:47.875Z,1018
2018-09-01T11:07:50.216Z,1018
2018-09-01T11:08:52.555Z,1018
2018-09-01T11:09:55.001Z,1018
2018-09-01T11:10:57.335Z,1018.1
2018-09-01T11:11:59.386Z,1018
2018-09-01T11:13:01.478Z,1018
2018-09-01T11:14:03.950Z,1018.1
2018-09-01T11:15:06.920Z,1018.1
2018-09-01T11:16:12.202Z,1018
2018-09-01T11:17:15.367Z,1018.1
2018-09-01T11:18:20.443Z,1018.1
2018-09-01T11:19:24.736Z,1018.1
2018-09-01T11:20:30.209Z,1018.1
2018-09-01T11:21:34.825Z,1018.1
2018-09-01T11:22:38.810Z,1018.1
2018-09-01T11:23:42.357Z,1018.1
2018-09-01T11:24:47.442Z,1018.1
2018-09-01T11:25:52.749Z,1018.1
2018-09-01T11:26:57.903Z,1018.1
2018-09-01T11:28:04.195Z,1018.2
2018-09-01T11:29:07.852Z,1018.2
2018-09-01T11:30:13.873Z,1018.2
2018-09-01T11:31:20.197Z,1018.2
2018-09-01T11:32:25.861Z,1018.2
2018-09-01T11:33:31.054Z,1018.2
2018-09-01T11:34:37.454Z,1018.1
2018-09-01T11:35:43.585Z,1018.1
2018-09-01T11:36:50.305Z,1018.1
2018-09-01T11:37:56.062Z,1018.1
2018-09-01T11:39:02.303Z,1018.1
2018-09-01T11:40:09.393Z,1018.1
2018-09-01T11:41:15.968Z,1018.1
2018-09-01T11:42:20.575Z,1018.1
2018-09-01T11:43:25.443Z,1018.1
2018-09-01T11:44:32.023Z,1018.1
2018-09-01T11:45:37.535Z,1018
2018-09-01T11:46:40.689Z,1018
2018-09-01T11:47:46.573Z,1018
2018-09-01T11:48:52.635Z,1018
2018-09-01T11:49:59.058Z,1018.1
2018-09-01T11:51:04.184Z,1018.1
2018-09-01T11:52:10.671Z,1018
2018-09-01T11:53:18.085Z,1018.1
2018-09-01T11:54:25.081Z,1018.1
2018-09-01T11:55:32.082Z,1018.1
2018-09-01T11:56:38.588Z,1018.1
2018-09-01T11:57:44.411Z,1018
2018-09-01T11:58:50.094Z,1018
2018-09-01T11:59:56.503Z,1018.1
2018-09-01T12:01:02.572Z,1018
2018-09-01T12:02:06.704Z,1018.1
2018-09-01T12:03:11.954Z,1018
2018-09-01T12:04:17.817Z,1018
2018-09-01T12:05:22.677Z,1018.1
2018-09-01T12:06:28.072Z,1018
2018-09-01T12:07:32.672Z,1018
2018-09-01T12:08:38.404Z,1018.1
2018-09-01T12:09:43.604Z,1018
2018-09-01T12:10:49.471Z,1018
2018-09-01T12:11:53.674Z,1018.1
2018-09-01T12:12:59.637Z,1018
2018-09-01T12:14:03.131Z,1018
2018-09-01T12:15:07.570Z,1018.1
2018-09-01T12:16:12.596Z,1018.1
2018-09-01T12:17:19.191Z,1018
2018-09-01T12:18:25.750Z,1018
2018-09-01T12:19:32.684Z,1018
2018-09-01T12:20:38.067Z,1018
2018-09-01T12:21:42.970Z,1018
2018-09-01T12:22:48.105Z,1018
2018-09-01T12:23:52.592Z,1018
2018-09-01T12:24:58.661Z,1018.1
2018-09-01T12:26:04.889Z,1018
2018-09-01T12:27:10.429Z,1018.1
2018-09-01T12:28:17.043Z,1018.1
2018-09-01T12:29:21.404Z,1018.1
2018-09-01T12:30:27.491Z,1018.1
2018-09-01T12:31:33.017Z,1018.1
2018-09-01T12:32:39.022Z,1018.1
2018-09-01T12:33:44.635Z,1018.2
2018-09-01T12:34:49.416Z,1018.1
2018-09-01T12:35:54.877Z,1018.2
2018-09-01T12:37:00.926Z,1018.2
2018-09-01T12:38:07.213Z,1018.2
2018-09-01T12:39:12.621Z,1018.2
2018-09-01T12:40:17.850Z,1018.2
2018-09-01T12:41:23.235Z,1018.2
2018-09-01T12:42:27.743Z,1018.1
2018-09-01T12:43:34.539Z,1018.2
2018-09-01T12:44:40.838Z,1018.2
2018-09-01T12:45:45.774Z,1018.2
2018-09-01T12:46:51.252Z,1018.2
2018-09-01T12:47:57.548Z,1018.2
2018-09-01T12:49:02.649Z,1018.2
2018-09-01T12:50:09.569Z,1018.2
2018-09-01T12:51:15.704Z,1018.2
2018-09-01T12:52:21.268Z,1018.2
2018-09-01T12:53:26.425Z,1018.1
2018-09-01T12:54:32.543Z,1018.2
2018-09-01T12:55:39.193Z,1018.2
2018-09-01T12:56:44.763Z,1018.1
2018-09-01T12:57:50.028Z,1018.1
2018-09-01T12:58:53.399Z,1018.2
2018-09-01T12:59:59.648Z,1018.1
2018-09-01T13:01:05.043Z,1018.1
2018-09-01T13:02:09.951Z,1018.2
2018-09-01T13:03:15.765Z,1018.2
2018-09-01T13:04:21.527Z,1018.2
2018-09-01T13:05:27.664Z,1018.1
2018-09-01T13:06:33.156Z,1018.1
2018-09-01T13:07:38.129Z,1018.2
2018-09-01T13:08:42.247Z,1018.1
2018-09-01T13:09:47.241Z,1018.1
2018-09-01T13:10:51.995Z,1018.1
2018-09-01T13:11:57.019Z,1018.1
2018-09-01T13:13:02.640Z,1018.1
2018-09-01T13:14:07.124Z,1018.2
2018-09-01T13:15:12.187Z,1018.1
2018-09-01T13:16:15.444Z,1018.1
2018-09-01T13:17:19.157Z,1018.1
2018-09-01T13:18:23.139Z,1018.1
2018-09-01T13:19:28.906Z,1018.1
2018-09-01T13:20:33.905Z,1018.1
2018-09-01T13:21:37.589Z,1018
2018-09-01T13:22:41.827Z,1018
2018-09-01T13:23:47.264Z,1018
2018-09-01T13:24:53.293Z,1018.1
2018-09-01T13:25:59.005Z,1018
2018-09-01T13:27:04.943Z,1018
2018-09-01T13:28:10.328Z,1018
2018-09-01T13:29:16.839Z,1018
2018-09-01T13:30:22.202Z,1018.1
2018-09-01T13:31:26.346Z,1018.1
2018-09-01T13:32:31.739Z,1018.1
2018-09-01T13:33:37.061Z,1018.1
2018-09-01T13:34:42.621Z,1018.1
2018-09-01T13:35:46.893Z,1018.1
2018-09-01T13:36:52.426Z,1018.1
2018-09-01T13:37:58.764Z,1018.1
2018-09-01T13:39:04.961Z,1018.1